CheckWX is a tool to help pilots better visualize weather data.  It is not intended as a substitute for an official pre-flight weather briefing.

19:54:57 UTC

RJFF TAF
Fukuoka Airport
Fukuoka, Japan
TAF RJFF 251705Z 2518/2700 14006KT 9999 FEW020 BKN030 TEMPO 2600/2603 4000 SHRA BR BECMG 2602/2604 15016KT TEMPO 2615/2700 3000 SHRA BR

Jun-25@
18:00 UTC

Jun-25 @ 18:00 UTC

Jun-26@
02:00 UTC

Jun-26 @ 02:00 UTC

TAF RJFF 251705Z 2518/2700 14006KT 9999 FEW020 BKN030
Wind
  • 140° at 6 KTS
Cloud Levels
  • Few at 2,000' AGL
  • Broken at 3,000' AGL

Jun-26@
00:00 UTC

Jun-26 @ 00:00 UTC

Jun-26@
03:00 UTC

Jun-26 @ 03:00 UTC

TEMPO 2600/2603 4000 SHRA BR

Temporary

Temporary Changes expected for less than half the time period

Conditions
Rain, Mist

Jun-26@
02:00 UTC

Jun-26 @ 02:00 UTC

Jun-27@
00:00 UTC

Jun-27 @ 00:00 UTC

BECMG 2602/2604 15016KT

Becoming

Becoming Conditions expected by Wed, Jun 26, 2019 @ 04:00 UTC

Wind
  • 150° at 16 KTS
Cloud Levels
  • Few at 2,000' AGL
  • Broken at 3,000' AGL

Jun-26@
15:00 UTC

Jun-26 @ 15:00 UTC

Jun-27@
00:00 UTC

Jun-27 @ 00:00 UTC

TEMPO 2615/2700 3000 SHRA BR

Temporary

Temporary Changes expected for less than half the time period

Conditions
Rain, Mist